Aviation Digital Data Service (ADDS)

Output produced by METARs form (0818 UTC 19 April 2019)
found at http://www.aviationweather.gov/metar/data/
 
Forecast for: DNKA (KADUNA (CIV/MIL), NG)
Text: TAF DNKA 190330Z 1906/2012 00000KT 7000 NSC
Forecast period: 0600 to 1000 UTC 19 April 2019
Forecast type: FROM: standard forecast or significant change
Winds: calm
Visibility: 4 miles (7 km)
Ceiling: unknown
Clouds: missing
Weather: no significant weather forecast for this period
Text: TEMPO 1906/1910 08010KT 5000 HZ
Forecast period: 0600 to 1000 UTC 19 April 2019
Forecast type: TEMPORARY: The following changes expected for less than half the time period
Winds: from the E (80 degrees) at 12 MPH (10 knots; 5.1 m/s)
Visibility: 3 miles (5 km)
Ceiling: unknown
Clouds: missing
Weather: HZ  (haze)
Text: BECMG 1910/1912 14007KT
Forecast period: 1000 UTC 19 April 2019 to 1200 UTC 20 April 2019
Forecast type: BECOMING: Conditions expected to become as follows by 1200 UTC 19 April 2019
Winds: from the SE (140 degrees) at 8 MPH (7 knots; 3.6 m/s)
Visibility: 4 miles (7 km)
Ceiling: unknown
Clouds: missing
Weather: no significant weather forecast for this period